Time;durP1;ratioP1;P1;durP2;ratioP2;P2;SDS_P1;SDS_P2;PMS_P1;PMS_P2;Temp;Humidity;BMP_temperature;BMP_pressure;BME280_temperature;BME280_humidity;BME280_pressure;Samples;Min_cycle;Max_cycle;Signal;HPM_P1;HPM_P2
2022/08/28 00:00:00;;;;;;;;;8.50;8.50;;;;;23.34;40.80;101115.91;2113486;27;48144;-52
2022/08/28 00:01:00;;;;;;;;;9.75;9.75;;;;;23.34;40.50;101121.31;2113187;27;47939;-51
2022/08/28 00:02:01;;;;;;;;;10.25;10.25;;;;;23.32;40.66;101116.00;2112944;27;47385;-50
2022/08/28 00:03:01;;;;;;;;;7.00;7.00;;;;;23.32;40.52;101116.00;2113312;27;48003;-50
2022/08/28 00:04:02;;;;;;;;;5.00;5.00;;;;;23.30;40.42;101117.97;2111293;27;47734;-54
2022/08/28 00:05:04;;;;;;;;;7.75;7.75;;;;;23.28;40.70;101114.50;2104962;28;47560;-53
2022/08/28 00:06:05;;;;;;;;;7.00;7.00;;;;;23.28;40.82;101116.34;2105613;27;47715;-52
2022/08/28 00:07:05;;;;;;;;;8.00;8.00;;;;;23.26;40.68;101115.56;2105450;27;47941;-53
2022/08/28 00:08:08;;;;;;;;;6.25;6.25;;;;;23.25;41.27;101112.00;2104891;28;47271;-50
2022/08/28 00:09:08;;;;;;;;;8.40;7.20;;;;;23.24;40.67;101114.78;2105567;27;47128;-55
2022/08/28 00:10:11;;;;;;;;;7.00;7.00;;;;;23.23;40.83;101110.34;2104974;27;47411;-53
2022/08/28 00:11:12;;;;;;;;;7.40;5.80;;;;;23.22;41.34;101114.03;2105543;27;47618;-53
2022/08/28 00:12:13;;;;;;;;;5.75;5.75;;;;;23.22;41.21;101114.03;2096713;28;47776;-52
2022/08/28 00:13:18;;;;;;;;;9.60;6.60;;;;;23.20;40.86;101124.97;2087287;28;47434;-55
2022/08/28 00:14:20;;;;;;;;;6.20;6.20;;;;;23.18;41.02;101122.38;2097238;28;47551;-52
2022/08/28 00:15:28;;;;;;;;;7.00;7.00;;;;;23.15;41.20;101111.75;2107870;27;47988;-53
2022/08/28 00:16:30;;;;;;;;;7.00;7.00;;;;;23.13;41.20;101121.81;2113108;27;47302;-53
2022/08/28 00:17:30;;;;;;;;;10.40;8.00;;;;;23.09;41.36;101112.16;2105129;27;47442;-52
2022/08/28 00:18:31;;;;;;;;;8.75;8.00;;;;;23.09;40.95;101122.13;2107399;27;47974;-50
2022/08/28 00:19:33;;;;;;;;;9.00;9.00;;;;;23.06;41.31;101115.06;2113227;27;47132;-52
2022/08/28 00:20:35;;;;;;;;;6.60;6.60;;;;;23.04;41.30;101108.91;2108269;27;47923;-51
2022/08/28 00:21:36;;;;;;;;;6.40;6.40;;;;;23.04;41.37;101111.59;2105526;27;47515;-53
2022/08/28 00:22:37;;;;;;;;;6.75;6.75;;;;;23.03;41.21;101109.00;2104997;28;47531;-55
2022/08/28 00:23:38;;;;;;;;;5.40;5.40;;;;;23.02;41.74;101110.84;2106026;27;47539;-52
2022/08/28 00:24:38;;;;;;;;;6.75;5.00;;;;;23.03;41.25;101109.88;2104864;28;47506;-54
2022/08/28 00:25:39;;;;;;;;;7.25;7.00;;;;;23.02;41.56;101113.56;2105236;27;47752;-52
2022/08/28 00:28:04;;;;;;;;;6.60;6.60;;;;;22.98;41.17;101109.31;2104564;27;47396;-52
2022/08/28 00:29:05;;;;;;;;;5.20;4.00;;;;;22.97;41.55;101107.56;2104953;28;47809;-53
2022/08/28 00:30:06;;;;;;;;;5.40;5.40;;;;;22.97;41.22;101104.84;2105962;27;48026;-54
2022/08/28 00:31:06;;;;;;;;;7.80;7.80;;;;;22.95;41.54;101109.50;2100518;28;47565;-53
2022/08/28 00:32:07;;;;;;;;;7.50;7.00;;;;;22.93;41.81;101111.47;2104886;27;47382;-54
2022/08/28 00:33:26;;;;;;;;;5.75;5.75;;;;;22.92;41.87;101109.72;2105425;27;47488;-53
2022/08/28 00:34:27;;;;;;;;;5.40;4.60;;;;;22.94;41.78;101106.91;2104925;28;47389;-50
2022/08/28 00:35:28;;;;;;;;;7.40;7.40;;;;;22.94;41.79;101107.78;2105216;27;47977;-53
2022/08/28 00:36:29;;;;;;;;;5.75;5.75;;;;;22.95;41.60;101109.50;2105930;27;47781;-51
2022/08/28 00:37:29;;;;;;;;;6.75;6.00;;;;;22.95;41.81;101111.34;2104435;28;47750;-52
2022/08/28 00:38:31;;;;;;;;;8.50;8.00;;;;;22.94;41.54;101113.19;2105472;27;47666;-53
2022/08/28 00:39:31;;;;;;;;;7.60;7.20;;;;;22.93;42.11;101119.59;2105403;27;47749;-55
2022/08/28 00:40:33;;;;;;;;;4.75;4.75;;;;;22.93;41.68;101119.59;2104688;28;48153;-52
2022/08/28 00:41:34;;;;;;;;;7.40;6.80;;;;;22.92;41.86;101117.84;2105262;27;47755;-51
2022/08/28 00:42:36;;;;;;;;;7.00;7.00;;;;;22.90;42.23;101112.53;2105064;27;47171;-53
2022/08/28 00:43:39;;;;;;;;;6.60;6.40;;;;;22.90;41.88;101112.53;2104749;28;47691;-53
2022/08/28 00:44:39;;;;;;;;;7.20;6.80;;;;;22.89;41.77;101115.34;2105703;27;47417;-53
2022/08/28 00:45:40;;;;;;;;;8.50;7.50;;;;;22.88;42.00;101119.91;2104521;28;46552;-52
2022/08/28 00:46:43;;;;;;;;;7.25;7.25;;;;;22.89;41.68;101112.66;2105529;27;47264;-55
2022/08/28 00:47:44;;;;;;;;;7.20;6.80;;;;;22.88;42.02;101122.59;2105293;27;47571;-53
2022/08/28 00:48:46;;;;;;;;;6.40;6.40;;;;;22.87;42.03;101117.31;2095450;28;47367;-52
2022/08/28 00:49:52;;;;;;;;;7.60;7.60;;;;;22.85;42.04;101124.63;2088467;28;47439;-52
2022/08/28 00:52:14;;;;;;;;;6.80;6.80;;;;;22.84;42.29;101120.19;2078171;28;47787;-53
2022/08/28 00:53:15;;;;;;;;;8.20;7.00;;;;;22.83;42.28;101122.03;2087500;28;47468;-52
2022/08/28 00:54:17;;;;;;;;;7.25;6.75;;;;;22.81;41.94;101115.81;2106189;27;47646;-54
2022/08/28 00:55:25;;;;;;;;;6.60;6.60;;;;;22.81;42.13;101118.53;2104679;28;47438;-54
2022/08/28 00:56:27;;;;;;;;;7.40;7.40;;;;;22.79;42.50;101123.16;2105763;27;47457;-54
2022/08/28 00:57:28;;;;;;;;;8.80;7.00;;;;;22.79;41.98;101116.91;2105963;27;48069;-52
2022/08/28 00:58:28;;;;;;;;;6.00;6.00;;;;;22.79;42.53;101117.75;2104381;28;47747;-51
2022/08/28 00:59:29;;;;;;;;;6.50;6.00;;;;;22.78;42.38;101115.16;2096853;28;47338;-53
2022/08/28 01:00:33;;;;;;;;;6.75;6.75;;;;;22.76;42.34;101117.97;2095318;28;47467;-54
2022/08/28 01:01:34;;;;;;;;;7.80;7.80;;;;;22.76;42.46;101119.81;2096557;28;47822;-52
2022/08/28 01:02:34;;;;;;;;;5.75;5.75;;;;;22.73;42.42;101118.16;2105940;27;47540;-51
2022/08/28 01:03:36;;;;;;;;;7.75;7.75;;;;;22.74;42.49;101122.63;2086657;28;45653;-51
2022/08/28 01:04:37;;;;;;;;;5.25;5.25;;;;;22.73;42.61;101123.56;2077936;28;47477;-52
2022/08/28 01:05:38;;;;;;;;;5.40;5.40;;;;;22.72;42.74;101121.81;2096656;28;48425;-52
2022/08/28 01:06:39;;;;;;;;;9.20;8.20;;;;;22.69;42.76;101121.16;2104609;28;47549;-54
2022/08/28 01:07:40;;;;;;;;;8.33;7.67;;;;;22.68;42.86;101122.13;2110488;27;47708;-52
2022/08/28 01:08:45;;;;;;;;;8.00;7.00;;;;;22.66;42.49;101124.09;2103775;28;47297;-54
2022/08/28 01:09:49;;;;;;;;;6.00;6.00;;;;;22.66;42.51;101115.97;2087658;28;47678;-54
2022/08/28 01:10:54;;;;;;;;;5.20;5.20;;;;;22.66;42.59;101114.13;2097393;28;47339;-54
2022/08/28 01:12:02;;;;;;;;;7.00;7.00;;;;;22.64;43.06;101124.19;2105288;27;47592;-53
2022/08/28 01:13:02;;;;;;;;;5.00;5.00;;;;;22.62;42.88;101123.44;2104206;28;47914;-56
2022/08/28 01:14:04;;;;;;;;;7.75;7.75;;;;;22.58;42.68;101114.63;2109741;27;47468;-52
2022/08/28 01:15:11;;;;;;;;;7.20;6.40;;;;;22.54;42.91;101118.50;2120783;27;48029;-53
2022/08/28 01:16:15;;;;;;;;;9.00;7.40;;;;;22.53;42.59;101115.91;2119322;27;47548;-50
2022/08/28 01:17:18;;;;;;;;;5.75;5.50;;;;;22.49;42.77;101123.34;2107471;27;48003;-53
2022/08/28 01:18:20;;;;;;;;;7.00;7.00;;;;;22.46;42.93;101115.41;2104939;27;47944;-51
2022/08/28 01:19:56;;;;;;;;;8.75;7.25;;;;;22.44;43.23;101122.78;2104529;27;47925;-51
2022/08/28 01:21:08;;;;;;;;;6.50;5.50;;;;;22.42;43.21;101121.13;2105180;27;46736;-49
2022/08/28 01:22:33;;;;;;;;;6.00;6.00;;;;;22.39;43.55;101113.22;2095700;28;45683;-50
2022/08/28 01:23:56;;;;;;;;;7.20;7.20;;;;;22.39;43.52;101121.34;2099586;27;47586;-51
2022/08/28 01:25:00;;;;;;;;;7.40;7.40;;;;;22.38;43.71;101119.59;2105429;27;47235;-54
2022/08/28 01:26:00;;;;;;;;;7.40;7.40;;;;;22.38;43.54;101122.31;2104341;28;47722;-50
2022/08/28 01:27:00;;;;;;;;;7.50;6.25;;;;;22.37;43.54;101116.03;2105704;27;47652;-51
2022/08/28 01:28:05;;;;;;;;;7.00;6.25;;;;;22.37;43.73;101121.44;2095764;28;47725;-51
2022/08/28 01:29:07;;;;;;;;;8.00;8.00;;;;;22.36;43.72;101114.31;2087784;28;47212;-54
2022/08/28 01:30:14;;;;;;;;;6.40;6.40;;;;;22.33;43.76;101123.47;2096327;28;47311;-51
2022/08/28 01:31:15;;;;;;;;;5.75;5.75;;;;;22.34;43.75;101118.91;2100905;27;47160;-52
2022/08/28 01:32:39;;;;;;;;;6.67;5.00;;;;;22.32;43.67;101105.50;2104497;28;47803;-53
2022/08/28 01:33:40;;;;;;;;;5.25;5.25;;;;;22.35;43.35;101114.38;2111987;27;47984;-52
2022/08/28 01:34:41;;;;;;;;;7.00;7.00;;;;;22.35;43.66;101103.56;2111151;27;47887;-53
2022/08/28 01:35:44;;;;;;;;;6.00;6.00;;;;;22.35;43.48;101101.72;2104340;28;47996;-51
2022/08/28 01:36:47;;;;;;;;;6.00;6.00;;;;;22.35;44.09;101107.13;2110995;27;47935;-55
2022/08/28 01:37:47;;;;;;;;;6.80;6.80;;;;;22.35;43.56;101103.56;2112485;27;48137;-53
2022/08/28 01:38:54;;;;;;;;;6.75;6.75;;;;;22.35;43.57;101101.72;2104347;28;47631;-55
2022/08/28 01:39:55;;;;;;;;;6.00;6.00;;;;;22.36;44.02;101105.28;2105265;27;47557;-49
2022/08/28 01:40:56;;;;;;;;;4.75;4.75;;;;;22.36;43.80;101097.19;2096111;28;47604;-53
2022/08/28 01:41:59;;;;;;;;;6.00;6.00;;;;;22.35;43.35;101100.84;2095409;28;47159;-51
2022/08/28 01:43:07;;;;;;;;;8.60;6.80;;;;;22.32;43.59;101093.81;2105258;27;47999;-51
2022/08/28 01:44:08;;;;;;;;;7.40;7.40;;;;;22.31;43.84;101098.34;2104742;27;47513;-60
2022/08/28 01:45:13;;;;;;;;;5.50;5.25;;;;;22.30;43.70;101099.31;2104866;27;47838;-52
2022/08/28 01:46:13;;;;;;;;;6.40;6.40;;;;;22.28;43.61;101101.25;2096179;28;47743;-51
2022/08/28 01:47:14;;;;;;;;;6.50;6.50;;;;;22.27;43.71;101095.97;2095404;28;47275;-49
2022/08/28 01:48:14;;;;;;;;;6.67;6.67;;;;;22.27;43.83;101099.53;2110449;27;47760;-54
2022/08/28 01:49:15;;;;;;;;;6.00;6.00;;;;;22.27;44.15;101101.38;2110005;27;47525;-51
2022/08/28 01:50:18;;;;;;;;;9.25;8.00;;;;;22.27;44.20;101098.66;2104750;28;47487;-52
2022/08/28 01:51:18;;;;;;;;;6.80;6.80;;;;;22.28;44.22;101095.00;2105542;27;47800;-52
2022/08/28 01:52:18;;;;;;;;;7.67;6.00;;;;;22.27;44.19;101096.81;2096362;28;47143;-51
2022/08/28 01:53:22;;;;;;;;;6.00;5.00;;;;;22.26;44.13;101097.78;2095414;28;47012;-51
2022/08/28 01:54:24;;;;;;;;;6.00;6.00;;;;;22.23;44.30;101091.69;2106015;27;48128;-52
2022/08/28 01:55:24;;;;;;;;;5.40;5.40;;;;;22.22;44.61;101098.06;2095465;28;47170;-55
2022/08/28 01:56:25;;;;;;;;;5.25;5.25;;;;;22.20;44.20;101092.75;2096701;27;47928;-52
2022/08/28 01:57:25;;;;;;;;;6.00;6.00;;;;;22.20;44.59;101090.06;2107198;27;47522;-55
2022/08/28 01:58:26;;;;;;;;;6.00;6.00;;;;;22.20;44.18;101089.19;2105891;28;47968;-55
2022/08/28 01:59:27;;;;;;;;;5.80;5.80;;;;;22.18;44.42;101093.84;2072577;28;46215;-55
2022/08/28 02:00:28;;;;;;;;;8.00;7.50;;;;;22.17;44.34;101092.09;2071867;28;47513;-52
2022/08/28 02:01:28;;;;;;;;;7.00;6.00;;;;;22.17;44.11;101092.97;2107237;27;47343;-53
2022/08/28 02:02:30;;;;;;;;;9.00;7.50;;;;;22.17;44.19;101092.09;2107110;27;47418;-52
2022/08/28 02:03:32;;;;;;;;;7.80;6.80;;;;;22.18;44.25;101091.13;2105792;28;48129;-49
2022/08/28 02:04:32;;;;;;;;;6.00;6.00;;;;;22.18;44.38;101093.84;2107151;27;48161;-52
2022/08/28 02:05:33;;;;;;;;;5.75;5.75;;;;;22.17;44.75;101092.09;2106856;27;47209;-52
2022/08/28 02:06:35;;;;;;;;;6.80;6.00;;;;;22.17;44.65;101094.81;2095981;28;47974;-53
2022/08/28 02:07:36;;;;;;;;;6.00;6.00;;;;;22.18;44.88;101097.41;2097581;28;47652;-53
2022/08/28 02:08:36;;;;;;;;;6.25;5.00;;;;;22.19;44.76;101098.28;2097417;28;47354;-54
2022/08/28 02:09:37;;;;;;;;;6.67;6.67;;;;;22.19;44.56;101098.28;2097344;28;47483;-52
2022/08/28 02:10:40;;;;;;;;;5.67;5.00;;;;;22.20;44.83;101103.59;2107720;27;47465;-51
2022/08/28 02:11:41;;;;;;;;;5.60;5.00;;;;;22.20;45.03;101091.91;2078892;28;47309;-52
2022/08/28 02:12:42;;;;;;;;;6.80;6.80;;;;;22.22;44.55;101092.66;2081361;28;47609;-52
2022/08/28 02:13:43;;;;;;;;;7.75;7.00;;;;;22.23;44.58;101100.72;2107389;27;47475;-52
2022/08/28 02:14:43;;;;;;;;;5.75;5.75;;;;;22.23;44.74;101098.00;2106060;28;47258;-54
2022/08/28 02:15:44;;;;;;;;;5.00;5.00;;;;;22.22;44.82;101101.66;2111212;27;47664;-51
2022/08/28 02:16:46;;;;;;;;;5.40;5.40;;;;;22.24;45.01;101091.63;2112917;27;47407;-50
2022/08/28 02:17:47;;;;;;;;;6.00;5.50;;;;;22.26;44.56;101096.94;2113519;27;47750;-50
2022/08/28 02:18:47;;;;;;;;;5.00;5.00;;;;;22.26;44.64;101091.53;2110779;27;47862;-54
2022/08/28 02:19:48;;;;;;;;;6.33;6.33;;;;;22.25;44.49;101098.75;2096806;28;47453;-51
2022/08/28 02:20:48;;;;;;;;;8.25;6.50;;;;;22.24;44.64;101096.16;2098043;28;47281;-52
2022/08/28 02:21:49;;;;;;;;;6.25;6.25;;;;;22.22;44.61;101103.47;2106931;27;47606;-51
2022/08/28 02:22:50;;;;;;;;;6.00;6.00;;;;;22.19;45.13;101098.28;2106030;28;46947;-54
2022/08/28 02:23:51;;;;;;;;;6.80;6.00;;;;;22.16;44.80;101103.88;2103043;28;47737;-53
2022/08/28 02:24:52;;;;;;;;;6.20;5.40;;;;;22.15;44.77;101102.16;2105157;27;47954;-52
2022/08/28 02:25:52;;;;;;;;;4.75;4.25;;;;;22.10;44.58;101105.13;2105205;27;47434;-51
2022/08/28 02:26:53;;;;;;;;;6.25;6.25;;;;;22.07;44.71;101099.06;2107352;27;47421;-52
2022/08/28 02:27:54;;;;;;;;;6.00;6.00;;;;;22.04;45.29;101105.50;2105324;28;46936;-55
2022/08/28 02:28:54;;;;;;;;;6.00;5.25;;;;;22.01;44.99;101103.00;2113540;27;47690;-50
2022/08/28 02:29:55;;;;;;;;;7.00;6.00;;;;;21.99;45.16;101107.63;2118428;27;47144;-50
2022/08/28 02:30:55;;;;;;;;;7.00;7.00;;;;;21.95;45.05;101097.97;2109557;27;47850;-49
2022/08/28 02:31:55;;;;;;;;;6.00;6.00;;;;;21.92;44.98;101107.13;2105492;27;47820;-49
2022/08/28 02:32:56;;;;;;;;;7.00;7.00;;;;;21.90;45.20;101106.38;2106725;27;47840;-51
2022/08/28 02:33:57;;;;;;;;;6.00;6.00;;;;;21.88;45.73;101110.13;2105641;27;47767;-52
2022/08/28 02:34:57;;;;;;;;;5.75;5.75;;;;;21.86;45.80;101109.38;2107208;27;47010;-50
2022/08/28 02:35:57;;;;;;;;;6.00;6.00;;;;;21.87;45.50;101108.41;2105802;28;47328;-52
2022/08/28 02:36:58;;;;;;;;;5.25;5.25;;;;;21.85;45.59;101107.59;2097463;28;47466;-49
2022/08/28 02:37:59;;;;;;;;;7.75;7.00;;;;;21.84;46.00;101112.16;2097468;28;48010;-52
2022/08/28 02:39:00;;;;;;;;;5.00;5.00;;;;;21.82;45.34;101102.41;2105514;28;47531;-53
2022/08/28 02:40:01;;;;;;;;;6.00;6.00;;;;;21.80;45.35;101107.91;2106961;27;47395;-50
2022/08/28 02:41:01;;;;;;;;;7.25;7.25;;;;;21.80;45.52;101104.34;2097732;28;47315;-50
2022/08/28 02:42:02;;;;;;;;;7.33;6.33;;;;;21.78;45.35;101101.72;2080280;28;47597;-53
2022/08/28 02:43:04;;;;;;;;;8.67;7.00;;;;;21.76;46.11;101100.97;2089890;28;47364;-53
2022/08/28 02:44:04;;;;;;;;;7.25;6.00;;;;;21.74;46.15;101100.19;2105029;28;47449;-52
2022/08/28 02:45:07;;;;;;;;;6.33;6.33;;;;;21.72;46.25;101102.09;2106768;27;47207;-52
2022/08/28 02:46:08;;;;;;;;;7.25;7.25;;;;;21.70;46.22;101091.38;2107280;27;47242;-50
2022/08/28 02:47:08;;;;;;;;;5.25;5.00;;;;;21.69;45.69;101094.19;2105308;28;47326;-51
2022/08/28 02:48:08;;;;;;;;;6.00;6.00;;;;;21.68;45.88;101104.13;2103252;28;47223;-52
2022/08/28 02:49:09;;;;;;;;;10.00;8.75;;;;;21.68;46.40;101106.81;2104497;28;47815;-53
2022/08/28 02:50:12;;;;;;;;;6.00;6.00;;;;;21.67;46.34;101105.09;2105463;28;47045;-50
2022/08/28 02:51:13;;;;;;;;;8.00;8.00;;;;;21.65;46.43;101104.31;2097652;28;47170;-54
2022/08/28 02:52:14;;;;;;;;;6.60;6.00;;;;;21.64;46.06;101105.28;2097410;28;47490;-51
2022/08/28 02:53:14;;;;;;;;;6.00;6.00;;;;;21.65;46.63;101103.47;2105452;28;47393;-53
2022/08/28 02:54:15;;;;;;;;;6.25;6.25;;;;;21.63;46.48;101103.56;2106513;27;47521;-55
2022/08/28 02:55:18;;;;;;;;;7.25;6.75;;;;;21.64;46.14;101101.72;2105059;28;47200;-52
2022/08/28 02:56:18;;;;;;;;;7.80;6.60;;;;;21.63;46.41;101103.56;2107126;27;47781;-53
2022/08/28 02:57:18;;;;;;;;;7.00;5.00;;;;;21.63;46.03;101100.00;2106082;27;47580;-50
2022/08/28 02:58:19;;;;;;;;;8.25;6.75;;;;;21.60;46.49;101095.66;2106272;27;47331;-51
2022/08/28 02:59:20;;;;;;;;;7.20;7.20;;;;;21.60;46.50;101094.78;2109348;27;47527;-49
2022/08/28 03:00:24;;;;;;;;;4.00;4.00;;;;;21.57;46.29;101098.50;2113940;27;47526;-51
2022/08/28 03:01:24;;;;;;;;;7.40;7.40;;;;;21.56;46.56;101101.31;2107442;27;47676;-51
2022/08/28 03:02:25;;;;;;;;;9.00;6.25;;;;;21.56;46.71;101099.47;2106897;27;47573;-54
2022/08/28 03:03:29;;;;;;;;;7.40;6.80;;;;;21.56;46.84;101104.00;2105174;28;47490;-51
2022/08/28 03:04:30;;;;;;;;;5.00;4.60;;;;;21.55;46.26;101102.28;2112001;27;47755;-53
2022/08/28 03:05:30;;;;;;;;;8.25;6.75;;;;;21.55;46.29;101096.88;2113182;27;47557;-53
2022/08/28 03:06:31;;;;;;;;;5.50;5.50;;;;;21.54;46.53;101096.00;2105681;28;47021;-51
2022/08/28 03:07:32;;;;;;;;;7.40;7.40;;;;;21.55;46.76;101094.19;2106128;27;47907;-49
2022/08/28 03:08:32;;;;;;;;;5.25;5.25;;;;;21.56;46.83;101091.38;2104557;27;47876;-50
2022/08/28 03:09:32;;;;;;;;;6.75;6.75;;;;;21.57;46.75;101093.13;2106252;27;47863;-52
2022/08/28 03:10:33;;;;;;;;;5.50;5.25;;;;;21.58;46.56;101091.28;2106628;27;47970;-52
2022/08/28 03:11:35;;;;;;;;;6.00;6.00;;;;;21.58;46.61;101094.84;2105333;28;46200;-52
2022/08/28 03:12:37;;;;;;;;;6.00;6.00;;;;;21.57;46.74;101093.13;2106806;27;47666;-50
2022/08/28 03:13:37;;;;;;;;;5.40;5.40;;;;;21.58;47.07;101102.09;2107186;27;47998;-51
2022/08/28 03:14:38;;;;;;;;;8.00;6.50;;;;;21.58;47.13;101091.28;2105308;28;46640;-49
2022/08/28 03:15:42;;;;;;;;;5.40;5.40;;;;;21.58;46.59;101092.16;2109946;27;47895;-52
2022/08/28 03:16:42;;;;;;;;;6.60;6.60;;;;;21.59;46.69;101090.31;2103330;28;47250;-48
2022/08/28 03:17:43;;;;;;;;;6.25;5.00;;;;;21.59;47.02;101091.19;2096230;28;48154;-53
2022/08/28 03:18:44;;;;;;;;;7.00;6.25;;;;;21.58;46.46;101092.16;2100880;28;47014;-51
2022/08/28 03:19:44;;;;;;;;;5.80;5.80;;;;;21.58;47.04;101086.75;2104636;28;48049;-51
2022/08/28 03:20:45;;;;;;;;;7.00;7.00;;;;;21.59;47.05;101090.31;2107350;27;47626;-54
2022/08/28 03:21:46;;;;;;;;;7.50;7.50;;;;;21.61;46.56;101091.13;2107639;27;47191;-55
2022/08/28 03:24:06;;;;;;;;;6.60;6.60;;;;;21.60;47.13;101092.94;2103240;27;47783;-50
2022/08/28 03:25:06;;;;;;;;;6.75;6.75;;;;;21.60;46.66;101090.25;2098814;28;47078;-50
2022/08/28 03:26:17;;;;;;;;;6.00;6.00;;;;;21.58;46.52;101092.16;2096365;28;47763;-49
2022/08/28 03:27:17;;;;;;;;;6.40;5.60;;;;;21.57;47.00;101097.66;2107321;27;47460;-49
2022/08/28 03:28:18;;;;;;;;;6.50;6.00;;;;;21.53;47.13;101094.28;2107529;27;47616;-51
2022/08/28 03:29:18;;;;;;;;;4.80;4.80;;;;;21.53;46.92;101088.00;2105274;28;47659;-49
2022/08/28 03:30:20;;;;;;;;;7.00;7.00;;;;;21.52;47.34;101097.06;2098278;28;47273;-50
2022/08/28 03:31:24;;;;;;;;;5.40;5.40;;;;;21.51;47.03;101093.50;2094004;27;47785;-51
2022/08/28 03:32:25;;;;;;;;;7.00;7.00;;;;;21.50;46.90;101089.06;2096054;28;47696;-52
2022/08/28 03:33:26;;;;;;;;;5.00;5.00;;;;;21.50;46.78;101088.19;2098418;28;47476;-49
2022/08/28 03:34:26;;;;;;;;;7.00;6.00;;;;;21.49;46.82;101089.16;2105717;27;47791;-50
2022/08/28 03:35:27;;;;;;;;;9.00;7.50;;;;;21.47;47.20;101085.66;2106883;27;47740;-49
2022/08/28 03:36:28;;;;;;;;;7.00;6.00;;;;;21.43;47.38;101098.50;2107323;27;48039;-50
2022/08/28 03:37:30;;;;;;;;;6.60;6.60;;;;;21.39;46.98;101091.56;2105416;28;47627;-51
2022/08/28 03:38:30;;;;;;;;;6.00;6.00;;;;;21.35;47.36;101088.19;2107792;27;47845;-52
2022/08/28 03:39:31;;;;;;;;;8.00;7.00;;;;;21.33;47.00;101091.91;2107257;27;48114;-49
2022/08/28 03:40:31;;;;;;;;;7.25;7.25;;;;;21.31;47.18;101093.84;2105107;28;47705;-52
2022/08/28 03:41:32;;;;;;;;;7.75;6.25;;;;;21.27;47.54;101093.16;2111191;27;47784;-53
2022/08/28 03:42:33;;;;;;;;;7.20;6.60;;;;;21.25;47.61;101087.00;2113907;27;47624;-55
2022/08/28 03:43:34;;;;;;;;;6.60;6.60;;;;;21.22;47.90;101097.94;2097139;28;47317;-57
2022/08/28 03:44:36;;;;;;;;;5.50;5.50;;;;;21.21;47.90;101098.00;2098367;28;47723;-54
2022/08/28 03:45:37;;;;;;;;;6.60;6.60;;;;;21.19;47.67;101091.84;2104582;27;47680;-53
2022/08/28 03:46:38;;;;;;;;;5.80;5.80;;;;;21.16;48.08;101093.75;2107349;27;48181;-53
2022/08/28 03:47:40;;;;;;;;;5.00;5.00;;;;;21.17;48.00;101091.94;2107805;27;47990;-53
2022/08/28 03:48:41;;;;;;;;;7.20;7.20;;;;;21.16;48.00;101092.91;2113600;27;48334;-55
2022/08/28 03:49:44;;;;;;;;;7.00;7.00;;;;;21.15;47.61;101094.72;2108758;27;48031;-53
2022/08/28 03:50:46;;;;;;;;;9.00;7.60;;;;;21.15;47.73;101093.84;2106934;27;48161;-53
2022/08/28 03:51:46;;;;;;;;;6.40;6.40;;;;;21.15;47.79;101094.72;2105301;27;47498;-50
2022/08/28 03:52:46;;;;;;;;;6.75;6.75;;;;;21.13;48.24;101088.56;2108252;27;47431;-54
2022/08/28 03:53:47;;;;;;;;;6.50;6.25;;;;;21.10;48.24;101080.66;2119210;27;46967;-52
2022/08/28 03:54:48;;;;;;;;;6.50;6.50;;;;;21.10;47.81;101091.44;2105042;27;47050;-52
2022/08/28 03:55:48;;;;;;;;;6.00;6.00;;;;;21.09;48.27;101095.09;2097156;28;48057;-52
2022/08/28 03:56:48;;;;;;;;;6.50;6.50;;;;;21.08;48.43;101098.75;2105124;28;47648;-53
2022/08/28 03:57:50;;;;;;;;;8.00;7.00;;;;;21.07;47.93;101093.44;2106467;27;47371;-55
2022/08/28 03:58:52;;;;;;;;;6.00;6.00;;;;;21.05;48.25;101095.38;2086685;28;47234;-54
2022/08/28 03:59:53;;;;;;;;;6.00;6.00;;;;;21.04;48.09;101088.22;2088921;28;46248;-53
2022/08/28 04:00:54;;;;;;;;;6.00;6.00;;;;;21.03;48.51;101091.88;2106365;27;47508;-52
2022/08/28 04:01:54;;;;;;;;;8.25;7.75;;;;;21.01;48.69;101085.72;2104779;28;47578;-52
2022/08/28 04:02:55;;;;;;;;;6.00;6.00;;;;;20.99;48.21;101096.59;2106048;27;46873;-53
2022/08/28 04:03:56;;;;;;;;;7.00;5.50;;;;;20.98;48.24;101096.69;2106261;27;47485;-52
2022/08/28 04:04:56;;;;;;;;;5.75;5.00;;;;;20.96;48.37;101099.50;2078299;28;47847;-53
2022/08/28 04:05:57;;;;;;;;;5.25;5.00;;;;;20.97;48.41;101094.97;2084328;28;47797;-55
2022/08/28 04:06:57;;;;;;;;;5.75;5.75;;;;;20.97;48.74;101094.97;2104533;28;47262;-53
2022/08/28 04:07:57;;;;;;;;;4.25;4.25;;;;;20.99;48.90;101101.13;2096660;28;47208;-51
2022/08/28 04:08:58;;;;;;;;;5.75;5.75;;;;;20.98;48.96;101100.28;2106357;27;47778;-53
2022/08/28 04:09:58;;;;;;;;;6.25;5.75;;;;;20.98;48.47;101102.09;2086857;28;47408;-52
2022/08/28 04:10:59;;;;;;;;;7.75;5.75;;;;;20.98;48.57;101102.97;2079786;28;47451;-51
2022/08/28 04:12:00;;;;;;;;;4.60;4.60;;;;;20.97;48.91;101097.66;2097083;28;46443;-55
2022/08/28 04:13:01;;;;;;;;;5.75;5.75;;;;;20.95;48.49;101100.41;2104970;28;48046;-53
2022/08/28 04:14:02;;;;;;;;;6.40;6.40;;;;;20.93;48.84;101102.34;2105933;27;47402;-51
2022/08/28 04:15:03;;;;;;;;;7.00;6.00;;;;;20.92;48.77;101103.31;2105215;27;47153;-52
2022/08/28 04:16:09;;;;;;;;;6.50;5.25;;;;;20.90;48.94;101094.44;2111728;27;47590;-51
2022/08/28 04:17:10;;;;;;;;;5.60;5.60;;;;;20.92;49.25;101097.03;2108392;27;47660;-50
2022/08/28 04:18:11;;;;;;;;;7.25;7.25;;;;;20.92;48.98;101097.03;2104910;28;47225;-51
2022/08/28 04:19:12;;;;;;;;;4.80;4.80;;;;;20.91;48.77;101095.31;2112978;27;47835;-53
2022/08/28 04:20:12;;;;;;;;;5.00;5.00;;;;;20.92;49.46;101097.03;2110615;27;47359;-53
2022/08/28 04:21:19;;;;;;;;;7.00;6.00;;;;;20.93;49.04;101098.78;2105149;28;47614;-53
2022/08/28 04:22:20;;;;;;;;;5.00;5.00;;;;;20.93;48.88;101093.38;2106078;27;48142;-52
2022/08/28 04:23:21;;;;;;;;;8.25;7.75;;;;;20.94;48.85;101101.38;2096870;28;47167;-51
2022/08/28 04:24:22;;;;;;;;;5.20;5.00;;;;;20.94;49.05;101097.81;2096385;28;47438;-50
2022/08/28 04:25:22;;;;;;;;;5.00;5.00;;;;;20.95;48.87;101100.41;2105633;27;47018;-54
2022/08/28 04:26:25;;;;;;;;;7.50;6.75;;;;;20.95;49.02;101102.25;2105695;27;47288;-50
2022/08/28 04:27:26;;;;;;;;;6.20;5.40;;;;;20.95;48.96;101102.25;2104976;28;47785;-52
2022/08/28 04:28:26;;;;;;;;;10.75;6.50;;;;;20.96;49.45;101106.69;2106329;27;45912;-49
2022/08/28 04:29:29;;;;;;;;;6.00;6.00;;;;;20.94;49.32;101106.78;2104659;28;48008;-52
2022/08/28 04:30:29;;;;;;;;;9.00;7.80;;;;;20.92;48.99;101097.91;2105584;27;47317;-52
2022/08/28 04:31:30;;;;;;;;;5.75;5.75;;;;;20.93;48.91;101104.19;2102700;27;47680;-53
2022/08/28 04:32:33;;;;;;;;;9.75;8.00;;;;;20.94;49.06;101108.59;2113375;27;46610;-54
2022/08/28 04:33:34;;;;;;;;;7.00;7.00;;;;;20.93;49.38;101105.03;2107562;27;47917;-49
2022/08/28 04:34:36;;;;;;;;;7.00;6.00;;;;;20.93;49.11;101104.19;2105477;27;47746;-51
2022/08/28 04:35:39;;;;;;;;;7.20;5.00;;;;;20.92;49.61;101106.00;2105002;28;47665;-49
2022/08/28 04:36:40;;;;;;;;;6.00;6.00;;;;;20.90;49.07;101105.22;2105550;27;47594;-52
2022/08/28 04:37:42;;;;;;;;;6.75;6.75;;;;;20.88;48.95;101104.47;2104983;27;47365;-50
2022/08/28 04:38:43;;;;;;;;;7.00;7.00;;;;;20.86;49.49;101106.38;2113244;27;47655;-53
2022/08/28 04:39:43;;;;;;;;;6.25;6.25;;;;;20.84;49.76;101102.91;2108784;27;47022;-52
2022/08/28 04:40:44;;;;;;;;;7.50;6.50;;;;;20.83;49.37;101107.44;2104176;28;48058;-54
2022/08/28 04:41:44;;;;;;;;;5.25;5.25;;;;;20.81;49.36;101103.94;2105354;27;47787;-53
2022/08/28 04:42:46;;;;;;;;;6.75;6.75;;;;;20.80;49.42;101101.31;2105832;27;47681;-52
2022/08/28 04:43:46;;;;;;;;;6.40;6.40;;;;;20.80;49.36;101101.31;2078014;28;47293;-55
2022/08/28 04:44:47;;;;;;;;;7.00;7.00;;;;;20.82;49.43;101107.50;2079490;28;47479;-52
2022/08/28 04:45:47;;;;;;;;;8.50;8.25;;;;;20.81;49.94;101109.31;2104909;27;47738;-53
2022/08/28 04:46:47;;;;;;;;;7.00;7.00;;;;;20.80;49.89;101109.41;2105265;27;47160;-52
2022/08/28 04:47:48;;;;;;;;;8.50;8.00;;;;;20.82;49.50;101110.19;2105314;27;47768;-49
2022/08/28 04:48:48;;;;;;;;;6.25;6.25;;;;;20.82;49.45;101115.59;2095946;28;47637;-52
2022/08/28 04:49:49;;;;;;;;;6.50;6.50;;;;;20.81;49.59;101117.41;2096487;28;47668;-55
2022/08/28 04:50:51;;;;;;;;;9.00;8.00;;;;;20.82;49.65;101110.19;2105559;27;47579;-51